This is the latest recevied weather packets stored in our database for station/object OE3MHU-13. If no packets are shown the sender has not sent any weather packets the latest 10 day(s).
| Time | Temp. | Humidity | Pressure | Rain* | Wind** | Luminosity | Snow |
|---|---|---|---|---|---|---|---|
| 1777718012 | 25° C | 35% | 1025.1 hPa | 0 mm | - | - | - |
| 1777717710 | 23.89° C | 37% | 1025.2 hPa | 0 mm | - | - | - |
| 1777717409 | 23.89° C | 36% | 1025.3 hPa | 0 mm | - | - | - |
| 1777717105 | 24.44° C | 35% | 1025.4 hPa | 0 mm | - | - | - |
| 1777716805 | 25° C | 34% | 1025.4 hPa | 0 mm | - | - | - |
| 1777716501 | 25° C | 35% | 1025.8 hPa | 0 mm | - | - | - |
| 1777716201 | 25.56° C | 33% | 1025.8 hPa | 0 mm | - | - | - |
| 1777715904 | 25° C | 33% | 1025.8 hPa | 0 mm | - | - | - |
| 1777715601 | 25° C | 33% | 1025.9 hPa | 0 mm | - | - | - |
| 1777715299 | 24.44° C | 36% | 1025.9 hPa | 0 mm | - | - | - |
| 1777715001 | 23.89° C | 37% | 1026 hPa | 0 mm | - | - | - |
| 1777714700 | 23.89° C | 39% | 1026 hPa | 0 mm | - | - | - |
| 1777714399 | 23.33° C | 39% | 1026.1 hPa | 0 mm | - | - | - |
| 1777714099 | 23.33° C | 41% | 1026.1 hPa | 0 mm | - | - | - |
| 1777713795 | 23.33° C | 41% | 1026.1 hPa | 0 mm | - | - | - |
| 1777713592 | 22.78° C | 44% | 1026.3 hPa | 0 mm | - | - | - |
| 1777713586 | 23.33° C | 42% | 1026.2 hPa | 0 mm | - | - | - |
| 1777713581 | 23.33° C | 40% | 1026.2 hPa | 0 mm | - | - | - |
| 1777712599 | 22.78° C | 44% | 1026.3 hPa | 0 mm | - | - | - |
| 1777712287 | 22.22° C | 45% | 1026.4 hPa | 0 mm | - | - | - |
| 1777711987 | 22.22° C | 46% | 1026.4 hPa | 0 mm | - | - | - |
| 1777711687 | 21.67° C | 46% | 1026.5 hPa | 0 mm | - | - | - |
| 1777711387 | 21.67° C | 45% | 1026.4 hPa | 0 mm | - | - | - |
| 1777711209 | 21.11° C | 45% | 1026.5 hPa | 0 mm | - | - | - |
| 1777711200 | 21.67° C | 45% | 1026.4 hPa | 0 mm | - | - | - |
* Rain latest hour (hover to see other rain measurements)
** Current wind speed in m/s (hover to see current wind gust speed)